Terminal Aerodrome Forecast
Issued by NWS

Home | Current Version | Previous Version | Text Only | Print | Product List | Glossary On
Versions: 1 2 3 4 5 6 7 8 9 10 11 12 13 14 15 16 17 18 19 20 21 22 23 24 25 26 27 28 29 30 31 32 33 34 35 36 37
674
FTUS43 KDLH 111720
TAFHIB
TAF
KHIB 111720Z 1118/1218 34016G25KT 6SM -SN BLSN BKN010 OVC030
     FM112100 33018G27KT P6SM SCT025
     FM120200 33015G25KT P6SM SKC
     FM120700 31006KT P6SM SCT100=

USA.gov is the U.S. government's official web portal to all federal, state and local government web resources and services.